sensor_id;sensor_type;location;lat;lon;timestamp;temperature;humidity
23633;DHT22;11993;48.748;9.166;2023-07-02T00:01:03;17.40;79.60
23633;DHT22;11993;48.748;9.166;2023-07-02T00:03:29;17.40;79.60
23633;DHT22;11993;48.748;9.166;2023-07-02T00:05:54;17.30;79.60
23633;DHT22;11993;48.748;9.166;2023-07-02T00:08:22;17.30;79.70
23633;DHT22;11993;48.748;9.166;2023-07-02T00:10:47;17.40;79.40
23633;DHT22;11993;48.748;9.166;2023-07-02T00:13:14;17.40;79.20
23633;DHT22;11993;48.748;9.166;2023-07-02T00:15:40;17.30;79.00
23633;DHT22;11993;48.748;9.166;2023-07-02T00:18:05;17.30;78.80
23633;DHT22;11993;48.748;9.166;2023-07-02T00:20:31;17.30;78.50
23633;DHT22;11993;48.748;9.166;2023-07-02T00:23:00;17.20;78.90
23633;DHT22;11993;48.748;9.166;2023-07-02T00:25:26;17.20;78.80
23633;DHT22;11993;48.748;9.166;2023-07-02T00:27:52;17.10;79.10
23633;DHT22;11993;48.748;9.166;2023-07-02T00:30:17;17.10;79.20
23633;DHT22;11993;48.748;9.166;2023-07-02T00:32:43;17.20;79.00
23633;DHT22;11993;48.748;9.166;2023-07-02T00:35:08;17.10;78.80
23633;DHT22;11993;48.748;9.166;2023-07-02T00:37:34;17.10;78.90
23633;DHT22;11993;48.748;9.166;2023-07-02T00:39:59;17.10;78.60
23633;DHT22;11993;48.748;9.166;2023-07-02T00:42:25;17.10;78.60
23633;DHT22;11993;48.748;9.166;2023-07-02T00:44:54;17.10;78.70
23633;DHT22;11993;48.748;9.166;2023-07-02T00:47:22;17.10;78.60
23633;DHT22;11993;48.748;9.166;2023-07-02T00:49:48;17.10;78.70
23633;DHT22;11993;48.748;9.166;2023-07-02T00:52:15;17.20;78.50
23633;DHT22;11993;48.748;9.166;2023-07-02T00:54:40;17.10;78.80
23633;DHT22;11993;48.748;9.166;2023-07-02T00:57:06;17.10;78.70
23633;DHT22;11993;48.748;9.166;2023-07-02T00:59:33;17.00;78.60
23633;DHT22;11993;48.748;9.166;2023-07-02T01:02:03;17.00;78.70
23633;DHT22;11993;48.748;9.166;2023-07-02T01:04:30;16.90;78.60
23633;DHT22;11993;48.748;9.166;2023-07-02T01:06:56;17.00;78.40
23633;DHT22;11993;48.748;9.166;2023-07-02T01:09:23;17.00;78.20
23633;DHT22;11993;48.748;9.166;2023-07-02T01:11:57;17.10;77.80
23633;DHT22;11993;48.748;9.166;2023-07-02T01:14:32;17.10;77.70
23633;DHT22;11993;48.748;9.166;2023-07-02T01:16:59;17.10;77.70
23633;DHT22;11993;48.748;9.166;2023-07-02T01:22:10;17.10;77.70
23633;DHT22;11993;48.748;9.166;2023-07-02T01:24:37;17.10;77.50
23633;DHT22;11993;48.748;9.166;2023-07-02T01:27:04;17.10;77.00
23633;DHT22;11993;48.748;9.166;2023-07-02T01:29:30;17.10;76.90
23633;DHT22;11993;48.748;9.166;2023-07-02T01:31:56;17.10;77.10
23633;DHT22;11993;48.748;9.166;2023-07-02T01:34:22;17.10;77.00
23633;DHT22;11993;48.748;9.166;2023-07-02T01:36:48;17.00;77.30
23633;DHT22;11993;48.748;9.166;2023-07-02T01:39:13;17.00;77.40
23633;DHT22;11993;48.748;9.166;2023-07-02T01:41:50;16.90;77.50
23633;DHT22;11993;48.748;9.166;2023-07-02T01:44:16;16.90;77.70
23633;DHT22;11993;48.748;9.166;2023-07-02T01:46:42;16.90;77.60
23633;DHT22;11993;48.748;9.166;2023-07-02T01:49:08;16.90;77.70
23633;DHT22;11993;48.748;9.166;2023-07-02T01:51:34;16.90;77.60
23633;DHT22;11993;48.748;9.166;2023-07-02T01:54:00;16.80;77.80
23633;DHT22;11993;48.748;9.166;2023-07-02T01:56:26;16.80;78.00
23633;DHT22;11993;48.748;9.166;2023-07-02T01:58:52;16.90;77.90
23633;DHT22;11993;48.748;9.166;2023-07-02T02:01:18;16.80;77.80
23633;DHT22;11993;48.748;9.166;2023-07-02T02:03:43;16.90;77.60
23633;DHT22;11993;48.748;9.166;2023-07-02T02:06:09;16.90;77.40
23633;DHT22;11993;48.748;9.166;2023-07-02T02:08:34;16.90;77.70
23633;DHT22;11993;48.748;9.166;2023-07-02T02:11:00;16.90;77.60
23633;DHT22;11993;48.748;9.166;2023-07-02T02:13:26;16.80;77.90
23633;DHT22;11993;48.748;9.166;2023-07-02T02:15:51;16.90;77.90
23633;DHT22;11993;48.748;9.166;2023-07-02T02:18:17;16.90;77.70
23633;DHT22;11993;48.748;9.166;2023-07-02T02:20:42;16.90;77.90
23633;DHT22;11993;48.748;9.166;2023-07-02T02:23:08;16.90;78.00
23633;DHT22;11993;48.748;9.166;2023-07-02T02:25:33;16.80;77.80
23633;DHT22;11993;48.748;9.166;2023-07-02T02:27:59;16.90;77.80
23633;DHT22;11993;48.748;9.166;2023-07-02T02:30:24;16.90;77.70
23633;DHT22;11993;48.748;9.166;2023-07-02T02:32:50;16.80;78.00
23633;DHT22;11993;48.748;9.166;2023-07-02T02:35:16;16.90;77.50
23633;DHT22;11993;48.748;9.166;2023-07-02T02:37:41;17.00;77.00
23633;DHT22;11993;48.748;9.166;2023-07-02T02:40:07;17.00;76.90
23633;DHT22;11993;48.748;9.166;2023-07-02T02:42:34;17.00;76.40
23633;DHT22;11993;48.748;9.166;2023-07-02T02:45:01;17.10;76.20
23633;DHT22;11993;48.748;9.166;2023-07-02T02:47:26;17.00;76.30
23633;DHT22;11993;48.748;9.166;2023-07-02T02:49:52;17.00;75.70
23633;DHT22;11993;48.748;9.166;2023-07-02T02:52:17;16.90;76.80
23633;DHT22;11993;48.748;9.166;2023-07-02T02:54:43;17.00;76.60
23633;DHT22;11993;48.748;9.166;2023-07-02T02:57:09;17.00;76.40
23633;DHT22;11993;48.748;9.166;2023-07-02T02:59:34;17.10;76.00
23633;DHT22;11993;48.748;9.166;2023-07-02T03:02:00;17.00;76.50
23633;DHT22;11993;48.748;9.166;2023-07-02T03:04:25;17.00;75.90
23633;DHT22;11993;48.748;9.166;2023-07-02T03:06:51;17.10;75.00
23633;DHT22;11993;48.748;9.166;2023-07-02T03:09:18;17.00;75.60
23633;DHT22;11993;48.748;9.166;2023-07-02T03:11:45;17.10;74.90
23633;DHT22;11993;48.748;9.166;2023-07-02T03:14:11;17.10;74.80
23633;DHT22;11993;48.748;9.166;2023-07-02T03:16:37;17.10;75.10
23633;DHT22;11993;48.748;9.166;2023-07-02T03:19:02;17.00;76.40
23633;DHT22;11993;48.748;9.166;2023-07-02T03:21:28;16.90;76.90
23633;DHT22;11993;48.748;9.166;2023-07-02T03:23:55;16.90;77.30
23633;DHT22;11993;48.748;9.166;2023-07-02T03:26:21;16.90;78.20
23633;DHT22;11993;48.748;9.166;2023-07-02T03:28:48;16.80;78.80
23633;DHT22;11993;48.748;9.166;2023-07-02T03:31:13;16.60;79.90
23633;DHT22;11993;48.748;9.166;2023-07-02T03:33:39;16.60;80.30
23633;DHT22;11993;48.748;9.166;2023-07-02T03:36:04;16.40;80.40
23633;DHT22;11993;48.748;9.166;2023-07-02T03:38:30;16.30;81.00
23633;DHT22;11993;48.748;9.166;2023-07-02T03:40:55;16.20;81.10
23633;DHT22;11993;48.748;9.166;2023-07-02T03:43:21;16.10;81.40
23633;DHT22;11993;48.748;9.166;2023-07-02T03:45:46;16.20;81.80
23633;DHT22;11993;48.748;9.166;2023-07-02T03:48:12;16.10;82.00
23633;DHT22;11993;48.748;9.166;2023-07-02T03:50:37;16.10;82.10
23633;DHT22;11993;48.748;9.166;2023-07-02T03:53:03;16.20;82.10
23633;DHT22;11993;48.748;9.166;2023-07-02T03:55:29;16.20;81.90
23633;DHT22;11993;48.748;9.166;2023-07-02T03:57:54;16.10;81.90
23633;DHT22;11993;48.748;9.166;2023-07-02T04:00:20;16.10;82.00
23633;DHT22;11993;48.748;9.166;2023-07-02T04:02:46;16.00;81.80
23633;DHT22;11993;48.748;9.166;2023-07-02T04:05:11;16.00;82.30
23633;DHT22;11993;48.748;9.166;2023-07-02T04:07:37;16.00;82.40
23633;DHT22;11993;48.748;9.166;2023-07-02T04:10:02;15.90;82.50
23633;DHT22;11993;48.748;9.166;2023-07-02T04:12:28;15.90;82.70
23633;DHT22;11993;48.748;9.166;2023-07-02T04:14:54;15.90;82.80
23633;DHT22;11993;48.748;9.166;2023-07-02T04:17:19;15.80;82.80
23633;DHT22;11993;48.748;9.166;2023-07-02T04:19:45;15.60;83.00
23633;DHT22;11993;48.748;9.166;2023-07-02T04:22:11;15.60;82.90
23633;DHT22;11993;48.748;9.166;2023-07-02T04:24:36;15.70;82.60
23633;DHT22;11993;48.748;9.166;2023-07-02T04:27:02;15.70;82.50
23633;DHT22;11993;48.748;9.166;2023-07-02T04:29:27;15.70;82.40
23633;DHT22;11993;48.748;9.166;2023-07-02T04:31:53;15.70;82.10
23633;DHT22;11993;48.748;9.166;2023-07-02T04:34:18;15.80;81.90
23633;DHT22;11993;48.748;9.166;2023-07-02T04:36:47;15.80;81.40
23633;DHT22;11993;48.748;9.166;2023-07-02T04:39:13;15.80;81.50
23633;DHT22;11993;48.748;9.166;2023-07-02T04:41:39;15.80;81.00
23633;DHT22;11993;48.748;9.166;2023-07-02T04:44:04;15.90;81.00
23633;DHT22;11993;48.748;9.166;2023-07-02T04:46:30;15.90;80.60
23633;DHT22;11993;48.748;9.166;2023-07-02T04:48:55;15.90;80.50
23633;DHT22;11993;48.748;9.166;2023-07-02T04:51:21;15.90;80.90
23633;DHT22;11993;48.748;9.166;2023-07-02T04:53:47;15.80;80.60
23633;DHT22;11993;48.748;9.166;2023-07-02T04:56:12;16.00;80.60
23633;DHT22;11993;48.748;9.166;2023-07-02T04:58:38;16.20;80.30
23633;DHT22;11993;48.748;9.166;2023-07-02T05:01:03;16.20;80.00
23633;DHT22;11993;48.748;9.166;2023-07-02T05:03:30;16.40;79.60
23633;DHT22;11993;48.748;9.166;2023-07-02T05:05:55;16.40;79.40
23633;DHT22;11993;48.748;9.166;2023-07-02T05:08:21;16.60;79.10
23633;DHT22;11993;48.748;9.166;2023-07-02T05:10:46;16.80;78.60
23633;DHT22;11993;48.748;9.166;2023-07-02T05:13:12;16.80;77.90
23633;DHT22;11993;48.748;9.166;2023-07-02T05:15:37;16.70;78.20
23633;DHT22;11993;48.748;9.166;2023-07-02T05:18:03;16.60;78.60
23633;DHT22;11993;48.748;9.166;2023-07-02T05:20:29;16.70;78.30
23633;DHT22;11993;48.748;9.166;2023-07-02T05:22:54;16.70;78.30
23633;DHT22;11993;48.748;9.166;2023-07-02T05:25:20;16.70;78.10
23633;DHT22;11993;48.748;9.166;2023-07-02T05:27:45;16.70;78.10
23633;DHT22;11993;48.748;9.166;2023-07-02T05:30:11;16.70;77.30
23633;DHT22;11993;48.748;9.166;2023-07-02T05:32:37;16.70;77.00
23633;DHT22;11993;48.748;9.166;2023-07-02T05:35:04;16.80;76.80
23633;DHT22;11993;48.748;9.166;2023-07-02T05:37:30;16.70;76.80
23633;DHT22;11993;48.748;9.166;2023-07-02T05:39:56;16.80;77.00
23633;DHT22;11993;48.748;9.166;2023-07-02T05:42:21;16.80;77.00
23633;DHT22;11993;48.748;9.166;2023-07-02T05:44:47;16.80;76.00
23633;DHT22;11993;48.748;9.166;2023-07-02T05:47:12;16.70;75.80
23633;DHT22;11993;48.748;9.166;2023-07-02T05:49:38;16.90;75.60
23633;DHT22;11993;48.748;9.166;2023-07-02T05:52:03;16.80;75.10
23633;DHT22;11993;48.748;9.166;2023-07-02T05:54:29;17.00;75.40
23633;DHT22;11993;48.748;9.166;2023-07-02T05:56:54;17.10;74.50
23633;DHT22;11993;48.748;9.166;2023-07-02T05:59:20;17.30;73.70
23633;DHT22;11993;48.748;9.166;2023-07-02T06:01:45;17.50;73.70
23633;DHT22;11993;48.748;9.166;2023-07-02T06:04:11;17.50;73.30
23633;DHT22;11993;48.748;9.166;2023-07-02T06:06:36;17.50;73.00
23633;DHT22;11993;48.748;9.166;2023-07-02T06:09:02;17.70;73.30
23633;DHT22;11993;48.748;9.166;2023-07-02T06:11:29;17.90;71.90
23633;DHT22;11993;48.748;9.166;2023-07-02T06:13:54;18.00;71.10
23633;DHT22;11993;48.748;9.166;2023-07-02T06:16:20;18.20;70.60
23633;DHT22;11993;48.748;9.166;2023-07-02T06:18:46;18.30;70.20
23633;DHT22;11993;48.748;9.166;2023-07-02T06:21:11;18.30;69.50
23633;DHT22;11993;48.748;9.166;2023-07-02T06:23:43;18.40;69.60
23633;DHT22;11993;48.748;9.166;2023-07-02T06:26:09;18.60;68.30
23633;DHT22;11993;48.748;9.166;2023-07-02T06:28:35;18.50;68.80
23633;DHT22;11993;48.748;9.166;2023-07-02T06:31:01;18.60;67.60
23633;DHT22;11993;48.748;9.166;2023-07-02T06:33:26;18.60;67.90
23633;DHT22;11993;48.748;9.166;2023-07-02T06:35:52;18.60;67.10
23633;DHT22;11993;48.748;9.166;2023-07-02T06:38:17;18.70;67.50
23633;DHT22;11993;48.748;9.166;2023-07-02T06:40:43;18.70;66.60
23633;DHT22;11993;48.748;9.166;2023-07-02T06:43:09;18.70;66.30
23633;DHT22;11993;48.748;9.166;2023-07-02T06:45:34;18.60;67.20
23633;DHT22;11993;48.748;9.166;2023-07-02T06:48:00;18.60;68.10
23633;DHT22;11993;48.748;9.166;2023-07-02T06:50:26;18.70;67.30
23633;DHT22;11993;48.748;9.166;2023-07-02T06:52:52;18.70;66.80
23633;DHT22;11993;48.748;9.166;2023-07-02T06:55:17;18.60;66.70
23633;DHT22;11993;48.748;9.166;2023-07-02T06:57:44;18.40;68.00
23633;DHT22;11993;48.748;9.166;2023-07-02T07:00:13;18.30;67.90
23633;DHT22;11993;48.748;9.166;2023-07-02T07:02:39;18.50;67.60
23633;DHT22;11993;48.748;9.166;2023-07-02T07:05:04;18.50;66.90
23633;DHT22;11993;48.748;9.166;2023-07-02T07:07:31;18.40;67.20
23633;DHT22;11993;48.748;9.166;2023-07-02T07:09:57;18.40;68.20
23633;DHT22;11993;48.748;9.166;2023-07-02T07:12:22;18.60;67.20
23633;DHT22;11993;48.748;9.166;2023-07-02T07:14:48;18.60;66.10
23633;DHT22;11993;48.748;9.166;2023-07-02T07:17:13;18.60;65.80
23633;DHT22;11993;48.748;9.166;2023-07-02T07:19:39;18.60;66.20
23633;DHT22;11993;48.748;9.166;2023-07-02T07:22:05;19.10;66.00
23633;DHT22;11993;48.748;9.166;2023-07-02T07:24:30;19.40;64.40
23633;DHT22;11993;48.748;9.166;2023-07-02T07:26:56;19.60;62.50
23633;DHT22;11993;48.748;9.166;2023-07-02T07:29:21;19.70;59.90
23633;DHT22;11993;48.748;9.166;2023-07-02T07:31:47;19.70;60.40
23633;DHT22;11993;48.748;9.166;2023-07-02T07:34:13;19.70;60.20
23633;DHT22;11993;48.748;9.166;2023-07-02T07:36:38;19.80;59.20
23633;DHT22;11993;48.748;9.166;2023-07-02T07:39:04;19.70;59.70
23633;DHT22;11993;48.748;9.166;2023-07-02T07:41:29;19.60;60.00
23633;DHT22;11993;48.748;9.166;2023-07-02T07:43:55;19.60;58.90
23633;DHT22;11993;48.748;9.166;2023-07-02T07:46:20;19.60;59.20
23633;DHT22;11993;48.748;9.166;2023-07-02T07:48:46;19.60;60.00
23633;DHT22;11993;48.748;9.166;2023-07-02T07:51:12;20.00;59.20
23633;DHT22;11993;48.748;9.166;2023-07-02T07:53:38;20.20;58.20
23633;DHT22;11993;48.748;9.166;2023-07-02T07:56:04;20.50;58.20
23633;DHT22;11993;48.748;9.166;2023-07-02T07:58:30;20.90;56.20
23633;DHT22;11993;48.748;9.166;2023-07-02T08:00:57;21.10;55.90
23633;DHT22;11993;48.748;9.166;2023-07-02T08:03:23;21.20;55.30
23633;DHT22;11993;48.748;9.166;2023-07-02T08:05:48;21.10;55.50
23633;DHT22;11993;48.748;9.166;2023-07-02T08:08:14;21.10;55.50
23633;DHT22;11993;48.748;9.166;2023-07-02T08:10:39;20.70;56.40
23633;DHT22;11993;48.748;9.166;2023-07-02T08:13:05;20.70;55.70
23633;DHT22;11993;48.748;9.166;2023-07-02T08:15:30;21.00;56.10
23633;DHT22;11993;48.748;9.166;2023-07-02T08:17:56;21.10;54.70
23633;DHT22;11993;48.748;9.166;2023-07-02T08:20:24;20.80;54.60
23633;DHT22;11993;48.748;9.166;2023-07-02T08:22:49;21.20;54.10
23633;DHT22;11993;48.748;9.166;2023-07-02T08:25:17;21.40;52.80
23633;DHT22;11993;48.748;9.166;2023-07-02T08:27:43;21.60;53.50
23633;DHT22;11993;48.748;9.166;2023-07-02T08:30:09;21.70;52.40
23633;DHT22;11993;48.748;9.166;2023-07-02T08:32:35;21.80;52.90
23633;DHT22;11993;48.748;9.166;2023-07-02T08:35:00;21.90;51.60
23633;DHT22;11993;48.748;9.166;2023-07-02T08:37:26;22.10;51.60
23633;DHT22;11993;48.748;9.166;2023-07-02T08:39:52;22.10;50.60
23633;DHT22;11993;48.748;9.166;2023-07-02T08:42:17;22.10;50.00
23633;DHT22;11993;48.748;9.166;2023-07-02T08:44:45;22.40;49.30
23633;DHT22;11993;48.748;9.166;2023-07-02T08:47:11;22.60;50.10
23633;DHT22;11993;48.748;9.166;2023-07-02T08:49:39;22.40;48.40
23633;DHT22;11993;48.748;9.166;2023-07-02T08:52:05;22.30;48.30
23633;DHT22;11993;48.748;9.166;2023-07-02T08:54:31;22.10;49.30
23633;DHT22;11993;48.748;9.166;2023-07-02T08:56:57;22.60;49.10
23633;DHT22;11993;48.748;9.166;2023-07-02T08:59:23;22.30;48.90
23633;DHT22;11993;48.748;9.166;2023-07-02T09:01:52;22.60;49.00
23633;DHT22;11993;48.748;9.166;2023-07-02T09:04:25;23.20;48.80
23633;DHT22;11993;48.748;9.166;2023-07-02T09:09:30;22.90;45.50
23633;DHT22;11993;48.748;9.166;2023-07-02T09:11:55;22.80;45.90
23633;DHT22;11993;48.748;9.166;2023-07-02T09:14:31;22.60;45.50
23633;DHT22;11993;48.748;9.166;2023-07-02T09:17:05;22.80;46.50
23633;DHT22;11993;48.748;9.166;2023-07-02T09:19:31;22.80;45.30
23633;DHT22;11993;48.748;9.166;2023-07-02T09:21:58;23.00;44.70
23633;DHT22;11993;48.748;9.166;2023-07-02T09:24:31;22.90;44.70
23633;DHT22;11993;48.748;9.166;2023-07-02T09:26:58;23.00;43.80
23633;DHT22;11993;48.748;9.166;2023-07-02T09:29:31;22.90;44.30
23633;DHT22;11993;48.748;9.166;2023-07-02T09:32:01;23.00;45.50
23633;DHT22;11993;48.748;9.166;2023-07-02T09:34:29;23.30;46.40
23633;DHT22;11993;48.748;9.166;2023-07-02T09:36:55;23.30;46.00
23633;DHT22;11993;48.748;9.166;2023-07-02T09:39:26;23.20;46.50
23633;DHT22;11993;48.748;9.166;2023-07-02T09:41:53;23.10;45.00
23633;DHT22;11993;48.748;9.166;2023-07-02T09:44:20;23.80;45.60
23633;DHT22;11993;48.748;9.166;2023-07-02T09:46:51;23.80;44.60
23633;DHT22;11993;48.748;9.166;2023-07-02T09:49:20;24.10;44.40
23633;DHT22;11993;48.748;9.166;2023-07-02T09:51:47;24.10;44.00
23633;DHT22;11993;48.748;9.166;2023-07-02T09:54:13;24.50;43.90
23633;DHT22;11993;48.748;9.166;2023-07-02T09:56:40;25.10;42.50
23633;DHT22;11993;48.748;9.166;2023-07-02T09:59:05;24.90;42.90
23633;DHT22;11993;48.748;9.166;2023-07-02T10:01:31;24.20;43.80
23633;DHT22;11993;48.748;9.166;2023-07-02T10:03:57;24.30;44.20
23633;DHT22;11993;48.748;9.166;2023-07-02T10:06:22;24.10;43.40
23633;DHT22;11993;48.748;9.166;2023-07-02T10:08:57;24.20;44.30
23633;DHT22;11993;48.748;9.166;2023-07-02T10:11:33;23.80;43.90
23633;DHT22;11993;48.748;9.166;2023-07-02T10:14:00;23.90;43.90
23633;DHT22;11993;48.748;9.166;2023-07-02T10:16:26;24.30;44.30
23633;DHT22;11993;48.748;9.166;2023-07-02T10:18:53;24.80;44.00
23633;DHT22;11993;48.748;9.166;2023-07-02T10:21:19;24.80;43.80
23633;DHT22;11993;48.748;9.166;2023-07-02T10:23:45;24.60;43.80
23633;DHT22;11993;48.748;9.166;2023-07-02T10:26:18;24.40;43.50
23633;DHT22;11993;48.748;9.166;2023-07-02T10:28:58;24.40;42.80
23633;DHT22;11993;48.748;9.166;2023-07-02T10:31:24;23.90;43.70
23633;DHT22;11993;48.748;9.166;2023-07-02T10:33:50;24.10;43.80
23633;DHT22;11993;48.748;9.166;2023-07-02T10:36:20;22.90;44.70
23633;DHT22;11993;48.748;9.166;2023-07-02T10:38:47;23.20;44.10
23633;DHT22;11993;48.748;9.166;2023-07-02T10:41:22;23.40;43.00
23633;DHT22;11993;48.748;9.166;2023-07-02T10:43:47;23.30;44.70
23633;DHT22;11993;48.748;9.166;2023-07-02T10:46:19;23.90;42.40
23633;DHT22;11993;48.748;9.166;2023-07-02T10:48:52;24.10;42.10
23633;DHT22;11993;48.748;9.166;2023-07-02T10:51:18;24.60;42.90
23633;DHT22;11993;48.748;9.166;2023-07-02T10:53:43;24.80;41.90
23633;DHT22;11993;48.748;9.166;2023-07-02T10:56:15;25.00;42.40
23633;DHT22;11993;48.748;9.166;2023-07-02T10:58:44;24.50;41.20
23633;DHT22;11993;48.748;9.166;2023-07-02T11:01:11;24.60;41.30
23633;DHT22;11993;48.748;9.166;2023-07-02T11:03:37;25.20;41.50
23633;DHT22;11993;48.748;9.166;2023-07-02T11:06:02;25.00;40.20
23633;DHT22;11993;48.748;9.166;2023-07-02T11:08:35;24.90;41.20
23633;DHT22;11993;48.748;9.166;2023-07-02T11:11:08;24.90;41.20
23633;DHT22;11993;48.748;9.166;2023-07-02T11:13:33;25.30;40.40
23633;DHT22;11993;48.748;9.166;2023-07-02T11:15:59;25.30;38.60
23633;DHT22;11993;48.748;9.166;2023-07-02T11:18:29;25.80;37.50
23633;DHT22;11993;48.748;9.166;2023-07-02T11:20:55;25.40;37.90
23633;DHT22;11993;48.748;9.166;2023-07-02T11:23:24;25.20;37.10
23633;DHT22;11993;48.748;9.166;2023-07-02T11:25:55;25.30;38.50
23633;DHT22;11993;48.748;9.166;2023-07-02T11:28:21;25.80;37.10
23633;DHT22;11993;48.748;9.166;2023-07-02T11:30:46;26.20;37.00
23633;DHT22;11993;48.748;9.166;2023-07-02T11:33:12;26.60;36.40
23633;DHT22;11993;48.748;9.166;2023-07-02T11:35:38;26.10;37.40
23633;DHT22;11993;48.748;9.166;2023-07-02T11:38:03;25.50;38.80
23633;DHT22;11993;48.748;9.166;2023-07-02T11:40:29;25.60;39.00
23633;DHT22;11993;48.748;9.166;2023-07-02T11:42:55;25.60;38.70
23633;DHT22;11993;48.748;9.166;2023-07-02T11:45:20;25.60;38.30
23633;DHT22;11993;48.748;9.166;2023-07-02T11:47:46;25.40;37.40
23633;DHT22;11993;48.748;9.166;2023-07-02T11:50:11;25.20;38.20
23633;DHT22;11993;48.748;9.166;2023-07-02T11:52:37;26.00;37.30
23633;DHT22;11993;48.748;9.166;2023-07-02T11:55:03;25.90;36.50
23633;DHT22;11993;48.748;9.166;2023-07-02T11:57:29;25.60;37.20
23633;DHT22;11993;48.748;9.166;2023-07-02T11:59:55;25.70;38.40
23633;DHT22;11993;48.748;9.166;2023-07-02T12:02:20;25.90;37.60
23633;DHT22;11993;48.748;9.166;2023-07-02T12:04:46;25.90;38.20
23633;DHT22;11993;48.748;9.166;2023-07-02T12:07:11;26.10;37.70
23633;DHT22;11993;48.748;9.166;2023-07-02T12:09:38;25.80;36.90
23633;DHT22;11993;48.748;9.166;2023-07-02T12:12:04;26.60;38.10
23633;DHT22;11993;48.748;9.166;2023-07-02T12:14:30;26.50;36.90
23633;DHT22;11993;48.748;9.166;2023-07-02T12:16:55;26.20;35.80
23633;DHT22;11993;48.748;9.166;2023-07-02T12:19:21;26.60;35.60
23633;DHT22;11993;48.748;9.166;2023-07-02T12:21:46;27.00;35.50
23633;DHT22;11993;48.748;9.166;2023-07-02T12:24:12;27.00;35.30
23633;DHT22;11993;48.748;9.166;2023-07-02T12:26:39;26.50;36.30
23633;DHT22;11993;48.748;9.166;2023-07-02T12:29:05;26.10;36.30
23633;DHT22;11993;48.748;9.166;2023-07-02T12:31:31;25.90;37.60
23633;DHT22;11993;48.748;9.166;2023-07-02T12:33:56;26.60;35.40
23633;DHT22;11993;48.748;9.166;2023-07-02T12:36:22;26.70;34.70
23633;DHT22;11993;48.748;9.166;2023-07-02T12:38:48;27.10;34.60
23633;DHT22;11993;48.748;9.166;2023-07-02T12:41:13;27.80;34.70
23633;DHT22;11993;48.748;9.166;2023-07-02T12:43:39;28.10;34.90
23633;DHT22;11993;48.748;9.166;2023-07-02T12:46:05;28.30;33.10
23633;DHT22;11993;48.748;9.166;2023-07-02T12:48:31;28.50;32.50
23633;DHT22;11993;48.748;9.166;2023-07-02T12:50:58;28.10;32.80
23633;DHT22;11993;48.748;9.166;2023-07-02T12:53:27;27.90;32.80
23633;DHT22;11993;48.748;9.166;2023-07-02T12:55:53;27.60;33.10
23633;DHT22;11993;48.748;9.166;2023-07-02T12:58:20;27.80;32.50
23633;DHT22;11993;48.748;9.166;2023-07-02T13:00:47;27.50;32.30
23633;DHT22;11993;48.748;9.166;2023-07-02T13:03:13;28.00;32.60
23633;DHT22;11993;48.748;9.166;2023-07-02T13:05:39;28.10;32.50
23633;DHT22;11993;48.748;9.166;2023-07-02T13:08:05;28.50;32.40
23633;DHT22;11993;48.748;9.166;2023-07-02T13:10:32;28.30;31.70
23633;DHT22;11993;48.748;9.166;2023-07-02T13:12:58;28.00;31.70
23633;DHT22;11993;48.748;9.166;2023-07-02T13:15:24;28.20;32.90
23633;DHT22;11993;48.748;9.166;2023-07-02T13:17:49;28.00;31.70
23633;DHT22;11993;48.748;9.166;2023-07-02T13:20:15;28.00;33.30
23633;DHT22;11993;48.748;9.166;2023-07-02T13:22:40;28.20;32.10
23633;DHT22;11993;48.748;9.166;2023-07-02T13:25:06;28.40;32.20
23633;DHT22;11993;48.748;9.166;2023-07-02T13:27:32;28.30;31.00
23633;DHT22;11993;48.748;9.166;2023-07-02T13:29:58;28.30;31.40
23633;DHT22;11993;48.748;9.166;2023-07-02T13:32:23;28.20;31.40
23633;DHT22;11993;48.748;9.166;2023-07-02T13:34:49;28.50;31.10
23633;DHT22;11993;48.748;9.166;2023-07-02T13:37:15;28.50;31.30
23633;DHT22;11993;48.748;9.166;2023-07-02T13:39:47;28.70;31.20
23633;DHT22;11993;48.748;9.166;2023-07-02T13:42:13;28.60;31.60
23633;DHT22;11993;48.748;9.166;2023-07-02T13:44:39;28.30;31.80
23633;DHT22;11993;48.748;9.166;2023-07-02T13:47:05;28.20;30.90
23633;DHT22;11993;48.748;9.166;2023-07-02T13:49:31;28.20;32.30
23633;DHT22;11993;48.748;9.166;2023-07-02T13:51:57;28.10;32.10
23633;DHT22;11993;48.748;9.166;2023-07-02T13:54:23;28.30;31.90
23633;DHT22;11993;48.748;9.166;2023-07-02T13:56:48;28.10;30.40
23633;DHT22;11993;48.748;9.166;2023-07-02T13:59:15;28.00;31.00
23633;DHT22;11993;48.748;9.166;2023-07-02T14:01:43;28.00;31.40
23633;DHT22;11993;48.748;9.166;2023-07-02T14:04:09;27.10;32.40
23633;DHT22;11993;48.748;9.166;2023-07-02T14:06:35;27.40;32.20
23633;DHT22;11993;48.748;9.166;2023-07-02T14:09:00;27.50;32.90
23633;DHT22;11993;48.748;9.166;2023-07-02T14:11:26;27.30;33.90
23633;DHT22;11993;48.748;9.166;2023-07-02T14:13:53;27.10;33.50
23633;DHT22;11993;48.748;9.166;2023-07-02T14:16:19;27.20;33.80
23633;DHT22;11993;48.748;9.166;2023-07-02T14:18:44;27.40;33.60
23633;DHT22;11993;48.748;9.166;2023-07-02T14:21:10;27.30;33.70
23633;DHT22;11993;48.748;9.166;2023-07-02T14:23:35;27.10;33.30
23633;DHT22;11993;48.748;9.166;2023-07-02T14:26:01;27.10;32.50
23633;DHT22;11993;48.748;9.166;2023-07-02T14:28:27;27.20;33.20
23633;DHT22;11993;48.748;9.166;2023-07-02T14:31:02;27.20;33.20
23633;DHT22;11993;48.748;9.166;2023-07-02T14:33:29;27.30;32.70
23633;DHT22;11993;48.748;9.166;2023-07-02T14:35:55;27.60;32.60
23633;DHT22;11993;48.748;9.166;2023-07-02T14:38:21;27.80;32.00
23633;DHT22;11993;48.748;9.166;2023-07-02T14:40:48;28.10;32.40
23633;DHT22;11993;48.748;9.166;2023-07-02T14:43:14;28.30;32.50
23633;DHT22;11993;48.748;9.166;2023-07-02T14:45:50;28.30;31.80
23633;DHT22;11993;48.748;9.166;2023-07-02T14:48:17;27.70;32.70
23633;DHT22;11993;48.748;9.166;2023-07-02T14:50:50;27.90;32.50
23633;DHT22;11993;48.748;9.166;2023-07-02T14:53:17;28.00;32.60
23633;DHT22;11993;48.748;9.166;2023-07-02T14:55:43;27.80;32.10
23633;DHT22;11993;48.748;9.166;2023-07-02T14:58:13;27.80;32.00
23633;DHT22;11993;48.748;9.166;2023-07-02T15:00:44;27.80;33.10
23633;DHT22;11993;48.748;9.166;2023-07-02T15:03:10;27.70;32.30
23633;DHT22;11993;48.748;9.166;2023-07-02T15:05:35;27.60;32.30
23633;DHT22;11993;48.748;9.166;2023-07-02T15:08:01;27.60;32.20
23633;DHT22;11993;48.748;9.166;2023-07-02T15:10:26;27.60;32.80
23633;DHT22;11993;48.748;9.166;2023-07-02T15:12:52;27.40;33.00
23633;DHT22;11993;48.748;9.166;2023-07-02T15:15:17;27.30;32.80
23633;DHT22;11993;48.748;9.166;2023-07-02T15:17:43;27.10;33.60
23633;DHT22;11993;48.748;9.166;2023-07-02T15:20:09;26.90;32.90
23633;DHT22;11993;48.748;9.166;2023-07-02T15:22:35;26.60;33.80
23633;DHT22;11993;48.748;9.166;2023-07-02T15:25:00;26.80;34.10
23633;DHT22;11993;48.748;9.166;2023-07-02T15:27:26;26.30;34.80
23633;DHT22;11993;48.748;9.166;2023-07-02T15:29:52;26.60;34.20